createdAt,value
2018-07-05T00:00:24.306Z,76.40
2018-07-05T00:03:03.195Z,75.60
2018-07-05T00:05:42.070Z,75.20
2018-07-05T00:08:20.979Z,75.20
2018-07-05T00:10:59.925Z,75.90
2018-07-05T00:13:38.885Z,76.40
2018-07-05T00:16:17.795Z,77.00
2018-07-05T00:18:56.613Z,77.20
2018-07-05T00:21:35.468Z,77.10
2018-07-05T00:24:14.556Z,76.70
2018-07-05T00:26:53.461Z,77.20
2018-07-05T00:29:32.411Z,78.00
2018-07-05T00:32:11.192Z,78.00
2018-07-05T00:34:50.200Z,78.20
2018-07-05T00:37:29.196Z,78.00
2018-07-05T00:40:08.126Z,77.20
2018-07-05T00:42:46.949Z,76.90
2018-07-05T00:45:25.846Z,76.80
2018-07-05T00:48:04.831Z,76.40
2018-07-05T00:50:43.811Z,75.70
2018-07-05T00:53:22.783Z,75.80
2018-07-05T00:56:01.719Z,75.90
2018-07-05T00:58:40.704Z,75.30
2018-07-05T01:03:52.657Z,76.20
2018-07-05T01:06:31.609Z,76.10
2018-07-05T01:09:10.608Z,76.00
2018-07-05T01:11:49.583Z,75.90
2018-07-05T01:14:28.617Z,76.40
2018-07-05T01:17:07.696Z,76.90
2018-07-05T01:19:46.601Z,76.70
2018-07-05T01:22:25.560Z,76.60
2018-07-05T01:25:04.536Z,76.50
2018-07-05T01:27:43.411Z,76.40
2018-07-05T01:30:22.377Z,75.90
2018-07-05T01:33:01.377Z,76.30
2018-07-05T01:35:40.241Z,76.30
2018-07-05T01:38:19.172Z,76.50
2018-07-05T01:40:58.229Z,76.50
2018-07-05T01:43:36.993Z,76.70
2018-07-05T01:46:25.662Z,76.80
2018-07-05T01:49:04.418Z,76.40
2018-07-05T01:51:43.341Z,75.90
2018-07-05T01:54:22.195Z,76.30
2018-07-05T01:57:01.346Z,76.70
2018-07-05T01:59:40.396Z,77.20
2018-07-05T02:02:19.284Z,77.30
2018-07-05T02:04:58.114Z,77.30
2018-07-05T02:07:37.058Z,77.50
2018-07-05T02:10:15.852Z,77.60
2018-07-05T02:12:54.752Z,77.90
2018-07-05T02:15:33.615Z,77.90
2018-07-05T02:18:12.522Z,78.40
2018-07-05T02:20:51.360Z,78.50
2018-07-05T02:23:30.265Z,78.40
2018-07-05T02:26:09.238Z,78.30
2018-07-05T02:28:48.236Z,78.20
2018-07-05T02:31:26.956Z,77.50
2018-07-05T02:34:15.641Z,77.40
2018-07-05T02:36:58.034Z,77.70
2018-07-05T02:39:42.578Z,77.80
2018-07-05T02:42:21.504Z,77.50
2018-07-05T02:45:00.301Z,77.70
2018-07-05T02:47:39.284Z,77.80
2018-07-05T02:50:18.101Z,77.60
2018-07-05T02:52:56.907Z,77.70
2018-07-05T02:55:35.707Z,78.10
2018-07-05T02:58:23.085Z,78.10
2018-07-05T03:01:06.182Z,77.90
2018-07-05T03:03:45.030Z,77.80
2018-07-05T03:08:57.057Z,77.80
2018-07-05T03:11:36.108Z,78.00
2018-07-05T03:14:15.041Z,78.10
2018-07-05T03:16:53.989Z,78.00
2018-07-05T03:19:32.955Z,77.90
2018-07-05T03:22:11.850Z,77.80
2018-07-05T03:24:50.732Z,77.60
2018-07-05T03:27:29.710Z,77.90
2018-07-05T03:30:08.586Z,77.90
2018-07-05T03:32:47.513Z,78.00
2018-07-05T03:35:26.488Z,78.00
2018-07-05T03:38:05.473Z,77.80
2018-07-05T03:40:44.345Z,77.90
2018-07-05T03:43:23.255Z,78.20
2018-07-05T03:46:02.203Z,79.20
2018-07-05T03:48:41.088Z,79.70
2018-07-05T03:51:20.034Z,79.60
2018-07-05T03:53:58.944Z,79.20
2018-07-05T03:56:37.902Z,79.20
2018-07-05T03:59:16.935Z,78.90
2018-07-05T04:01:55.799Z,78.00
2018-07-05T04:04:34.735Z,77.80
2018-07-05T04:07:13.763Z,77.90
2018-07-05T04:09:52.619Z,78.00
2018-07-05T04:12:31.560Z,78.20
2018-07-05T04:15:10.536Z,78.20
2018-07-05T04:17:49.503Z,78.20
2018-07-05T04:20:28.420Z,78.30
2018-07-05T04:23:07.259Z,78.40
2018-07-05T04:25:46.219Z,78.70
2018-07-05T04:28:27.462Z,78.70
2018-07-05T04:31:06.245Z,78.80
2018-07-05T04:33:47.174Z,78.70
2018-07-05T04:36:26.098Z,78.60
2018-07-05T04:39:05.023Z,78.70
2018-07-05T04:41:43.952Z,78.80
2018-07-05T04:44:23.041Z,78.80
2018-07-05T04:47:01.969Z,78.90
2018-07-05T04:49:40.862Z,79.00
2018-07-05T04:52:19.749Z,79.40
2018-07-05T04:54:58.827Z,79.60
2018-07-05T04:57:38.006Z,79.30
2018-07-05T05:02:50.329Z,81.00
2018-07-05T05:05:29.274Z,80.80
2018-07-05T05:08:08.178Z,80.60
2018-07-05T05:10:47.149Z,80.70
2018-07-05T05:13:26.052Z,80.50
2018-07-05T05:16:04.982Z,80.00
2018-07-05T05:18:43.985Z,79.50
2018-07-05T05:21:22.974Z,79.80
2018-07-05T05:24:01.943Z,79.90
2018-07-05T05:26:41.671Z,79.00
2018-07-05T05:29:20.604Z,78.70
2018-07-05T05:31:59.693Z,78.70
2018-07-05T05:34:38.536Z,77.90
2018-07-05T05:37:17.440Z,77.00
2018-07-05T05:39:56.557Z,76.50
2018-07-05T05:42:35.488Z,76.80
2018-07-05T05:45:14.568Z,75.90
2018-07-05T05:47:53.299Z,75.80
2018-07-05T05:50:32.239Z,75.40
2018-07-05T05:53:11.244Z,75.00
2018-07-05T05:55:50.143Z,74.90
2018-07-05T05:58:29.042Z,74.60
2018-07-05T06:01:07.891Z,74.20
2018-07-05T06:03:46.946Z,74.00
2018-07-05T06:06:25.837Z,73.70
2018-07-05T06:09:04.961Z,73.70
2018-07-05T06:11:43.793Z,73.30
2018-07-05T06:14:22.739Z,73.10
2018-07-05T06:17:01.625Z,73.20
2018-07-05T06:19:40.521Z,72.80
2018-07-05T06:22:19.543Z,72.30
2018-07-05T06:24:58.505Z,71.80
2018-07-05T06:27:37.537Z,72.30
2018-07-05T06:30:16.425Z,72.20
2018-07-05T06:32:55.346Z,71.00
2018-07-05T06:35:34.327Z,70.50
2018-07-05T06:38:13.266Z,70.60
2018-07-05T06:40:52.224Z,70.50
2018-07-05T06:43:31.170Z,69.50
2018-07-05T06:46:10.154Z,68.80
2018-07-05T06:48:49.242Z,68.70
2018-07-05T06:51:28.069Z,68.30
2018-07-05T06:54:06.997Z,67.80
2018-07-05T06:56:45.915Z,67.90
2018-07-05T06:59:24.672Z,66.80
2018-07-05T07:02:03.743Z,66.50
2018-07-05T07:04:42.691Z,66.60
2018-07-05T07:07:21.686Z,66.40
2018-07-05T07:10:00.756Z,65.70
2018-07-05T07:12:39.675Z,65.30
2018-07-05T07:15:18.618Z,65.10
2018-07-05T07:17:57.616Z,65.90
2018-07-05T07:20:36.621Z,65.40
2018-07-05T07:23:15.750Z,66.20
2018-07-05T07:25:54.682Z,66.40
2018-07-05T07:28:33.623Z,65.70
2018-07-05T07:31:12.594Z,66.20
2018-07-05T07:33:52.615Z,65.40
2018-07-05T07:36:31.507Z,65.40
2018-07-05T07:39:10.515Z,64.00
2018-07-05T07:41:45.745Z,64.00
2018-07-05T07:44:12.277Z,64.20
2018-07-05T07:46:38.751Z,64.10
2018-07-05T07:49:05.580Z,64.80
2018-07-05T07:53:59.116Z,65.30
2018-07-05T07:56:25.628Z,64.50
2018-07-05T07:58:52.155Z,64.00
2018-07-05T08:01:18.655Z,63.70
2018-07-05T08:03:45.243Z,63.80
2018-07-05T08:06:11.828Z,63.90
2018-07-05T08:08:38.296Z,64.60
2018-07-05T08:11:04.854Z,63.50
2018-07-05T08:13:31.342Z,63.60
2018-07-05T08:15:57.900Z,62.40
2018-07-05T08:18:24.401Z,62.50
2018-07-05T08:20:50.869Z,62.20
2018-07-05T08:23:17.373Z,62.10
2018-07-05T08:25:45.019Z,62.50
2018-07-05T08:28:11.713Z,60.60
2018-07-05T08:30:38.228Z,60.30
2018-07-05T08:35:31.635Z,59.00
2018-07-05T08:37:58.153Z,58.60
2018-07-05T08:40:24.799Z,59.50
2018-07-05T08:42:51.320Z,58.60
2018-07-05T08:45:18.368Z,58.80
2018-07-05T08:47:45.191Z,58.70
2018-07-05T08:50:11.689Z,59.10
2018-07-05T08:52:38.216Z,58.70
2018-07-05T08:55:04.737Z,58.10
2018-07-05T08:57:33.749Z,57.90
2018-07-05T09:00:00.246Z,58.20
2018-07-05T09:02:26.743Z,58.90
2018-07-05T09:04:53.291Z,57.50
2018-07-05T09:07:20.040Z,57.70
2018-07-05T09:09:46.538Z,57.50
2018-07-05T09:12:13.092Z,56.60
2018-07-05T09:14:39.736Z,55.20
2018-07-05T09:19:33.858Z,55.80
2018-07-05T09:22:00.468Z,54.80
2018-07-05T09:24:26.965Z,54.30
2018-07-05T09:26:53.503Z,54.30
2018-07-05T09:29:19.993Z,54.80
2018-07-05T09:31:47.210Z,54.60
2018-07-05T09:34:19.544Z,54.70
2018-07-05T09:39:24.628Z,54.60
2018-07-05T09:41:51.715Z,56.50
2018-07-05T09:46:57.808Z,59.20
2018-07-05T09:49:24.300Z,59.90
2018-07-05T09:51:50.830Z,60.60
2018-07-05T09:54:17.317Z,60.90
2018-07-05T09:56:43.791Z,61.70
2018-07-05T09:59:10.295Z,61.00
2018-07-05T10:01:36.758Z,58.80
2018-07-05T10:04:03.238Z,58.10
2018-07-05T10:06:29.742Z,58.20
2018-07-05T10:08:56.237Z,56.40
2018-07-05T10:11:22.738Z,58.10
2018-07-05T10:16:16.213Z,59.50
2018-07-05T10:18:42.732Z,60.20
2018-07-05T10:21:09.318Z,58.80
2018-07-05T10:23:35.769Z,61.00
2018-07-05T10:26:02.242Z,61.30
2018-07-05T10:28:28.749Z,63.80
2018-07-05T10:31:07.568Z,65.20
2018-07-05T10:33:49.615Z,65.40
2018-07-05T10:36:16.177Z,68.50
2018-07-05T10:38:42.784Z,67.70
2018-07-05T10:41:21.570Z,68.70
2018-07-05T10:44:00.503Z,69.90
2018-07-05T10:46:39.510Z,68.70
2018-07-05T10:49:18.231Z,69.90
2018-07-05T10:51:57.261Z,69.00
2018-07-05T10:54:36.155Z,70.70
2018-07-05T10:57:15.115Z,71.60
2018-07-05T10:59:54.106Z,70.50
2018-07-05T11:02:33.164Z,71.70
2018-07-05T11:05:12.000Z,72.60
2018-07-05T11:07:50.865Z,72.90
2018-07-05T11:10:29.741Z,72.90
2018-07-05T11:13:08.559Z,73.30
2018-07-05T11:15:47.479Z,73.60
2018-07-05T11:18:26.359Z,74.00
2018-07-05T11:21:05.309Z,76.70
2018-07-05T11:23:44.270Z,77.30
2018-07-05T11:26:23.161Z,79.60
2018-07-05T11:29:02.011Z,79.10
2018-07-05T11:31:40.835Z,78.60
2018-07-05T11:34:19.863Z,81.10
2018-07-05T11:36:58.729Z,83.30
2018-07-05T11:39:39.551Z,83.00
2018-07-05T11:42:18.368Z,83.00
2018-07-05T11:44:57.513Z,81.70
2018-07-05T11:47:49.283Z,83.20
2018-07-05T11:50:36.016Z,82.70
2018-07-05T11:53:15.014Z,81.40
2018-07-05T11:55:54.381Z,81.80
2018-07-05T11:58:33.333Z,81.60
2018-07-05T12:01:12.836Z,81.20
2018-07-05T12:03:51.768Z,81.10
2018-07-05T12:06:31.770Z,80.50
2018-07-05T12:09:10.937Z,79.50
2018-07-05T12:11:50.447Z,79.60
2018-07-05T12:14:29.365Z,80.20
2018-07-05T12:17:08.986Z,80.60
2018-07-05T12:19:48.057Z,79.70
2018-07-05T12:22:27.061Z,79.20
2018-07-05T12:25:06.071Z,80.00
2018-07-05T12:27:45.068Z,79.70
2018-07-05T12:30:27.791Z,78.50
2018-07-05T12:33:06.646Z,78.80
2018-07-05T12:35:45.657Z,78.20
2018-07-05T12:38:26.413Z,75.80
2018-07-05T12:41:05.438Z,74.40
2018-07-05T12:43:44.363Z,74.60
2018-07-05T12:46:23.323Z,73.40
2018-07-05T12:49:02.251Z,75.60
2018-07-05T12:51:41.161Z,74.50
2018-07-05T12:54:20.255Z,74.70
2018-07-05T12:56:59.326Z,74.40
2018-07-05T12:59:44.495Z,76.20
2018-07-05T13:02:23.427Z,71.80
2018-07-05T13:05:02.435Z,72.60
2018-07-05T13:07:41.369Z,72.00
2018-07-05T13:10:20.358Z,73.20
2018-07-05T13:15:32.343Z,74.70
2018-07-05T13:18:11.355Z,74.10
2018-07-05T13:20:50.242Z,74.80
2018-07-05T13:23:29.303Z,75.10
2018-07-05T13:26:08.319Z,75.70
2018-07-05T13:28:47.244Z,75.50
2018-07-05T13:31:26.429Z,76.40
2018-07-05T13:34:05.279Z,75.60
2018-07-05T13:36:44.089Z,74.30
2018-07-05T13:39:22.990Z,74.60
2018-07-05T13:42:01.894Z,74.90
2018-07-05T13:44:40.786Z,73.20
2018-07-05T13:47:20.662Z,73.40
2018-07-05T13:49:59.504Z,72.10
2018-07-05T13:52:38.312Z,73.40
2018-07-05T13:55:17.338Z,72.70
2018-07-05T13:57:56.252Z,72.70
2018-07-05T14:00:35.074Z,70.00
2018-07-05T14:03:13.996Z,71.40
2018-07-05T14:05:53.706Z,71.10
2018-07-05T14:15:24.040Z,70.30
2018-07-05T14:18:02.971Z,71.40
2018-07-05T14:20:41.865Z,69.70
2018-07-05T14:23:20.898Z,67.80
2018-07-05T14:25:59.677Z,69.30
2018-07-05T14:28:38.732Z,71.10
2018-07-05T14:31:17.804Z,70.40
2018-07-05T14:33:56.520Z,68.00
2018-07-05T14:36:35.523Z,68.70
2018-07-05T14:39:14.463Z,69.70
2018-07-05T14:41:53.351Z,67.40
2018-07-05T14:44:32.287Z,69.90
2018-07-05T14:47:11.038Z,71.20
2018-07-05T14:49:49.968Z,70.70
2018-07-05T14:52:28.805Z,71.10
2018-07-05T14:55:07.862Z,71.40
2018-07-05T14:57:46.820Z,70.20
2018-07-05T15:00:25.856Z,67.70
2018-07-05T15:03:04.759Z,66.20
2018-07-05T15:05:43.787Z,66.90
2018-07-05T15:08:22.575Z,67.70
2018-07-05T15:11:01.636Z,70.10
2018-07-05T15:13:40.474Z,72.70
2018-07-05T15:16:20.334Z,74.10
2018-07-05T15:18:59.626Z,72.00
2018-07-05T15:21:38.568Z,73.20
2018-07-05T15:24:17.447Z,73.80
2018-07-05T15:26:56.540Z,75.20
2018-07-05T15:29:35.545Z,76.70
2018-07-05T15:32:14.433Z,76.50
2018-07-05T15:34:53.221Z,73.00
2018-07-05T15:37:32.128Z,72.00
2018-07-05T15:40:11.054Z,72.00
2018-07-05T15:42:50.164Z,72.90
2018-07-05T15:45:29.094Z,73.40
2018-07-05T15:48:08.124Z,73.20
2018-07-05T15:50:47.055Z,72.70
2018-07-05T15:56:00.576Z,75.60
2018-07-05T15:58:39.339Z,76.80
2018-07-05T16:01:18.436Z,74.20
2018-07-05T16:06:30.333Z,74.40
2018-07-05T16:09:09.273Z,75.00
2018-07-05T16:11:48.971Z,73.40
2018-07-05T16:14:27.773Z,74.40
2018-07-05T16:17:06.671Z,74.40
2018-07-05T16:19:45.575Z,74.20
2018-07-05T16:22:24.458Z,76.40
2018-07-05T16:25:03.292Z,76.90
2018-07-05T16:27:42.136Z,77.20
2018-07-05T16:30:20.954Z,77.80
2018-07-05T16:33:00.069Z,78.30
2018-07-05T16:35:38.876Z,78.20
2018-07-05T16:38:17.956Z,78.20
2018-07-05T16:40:56.893Z,78.20
2018-07-05T16:43:36.035Z,79.60
2018-07-05T16:46:15.017Z,80.40
2018-07-05T16:48:53.945Z,79.50
2018-07-05T16:51:32.757Z,79.70
2018-07-05T16:54:11.706Z,79.60
2018-07-05T16:56:50.926Z,78.30
2018-07-05T16:59:30.176Z,75.90
2018-07-05T17:02:08.998Z,75.80
2018-07-05T17:04:47.828Z,75.90
2018-07-05T17:07:26.739Z,76.20
2018-07-05T17:10:07.446Z,72.10
2018-07-05T17:12:46.386Z,73.00
2018-07-05T17:15:25.336Z,73.90
2018-07-05T17:18:04.322Z,75.40
2018-07-05T17:20:43.163Z,73.50
2018-07-05T17:23:22.631Z,72.30
2018-07-05T17:26:07.306Z,72.70
2018-07-05T17:28:56.981Z,70.60
2018-07-05T17:31:36.440Z,72.20
2018-07-05T17:34:16.667Z,73.10
2018-07-05T17:37:00.999Z,72.30
2018-07-05T17:39:39.840Z,71.30
2018-07-05T17:42:18.813Z,71.30
2018-07-05T17:44:57.666Z,73.40
2018-07-05T17:47:36.586Z,74.00
2018-07-05T17:50:16.012Z,73.90
2018-07-05T17:52:54.838Z,74.10
2018-07-05T17:55:33.711Z,74.70
2018-07-05T17:58:13.859Z,73.80
2018-07-05T18:00:54.046Z,74.50
2018-07-05T18:03:34.134Z,75.80
2018-07-05T18:06:13.106Z,76.20
2018-07-05T18:08:52.472Z,75.70
2018-07-05T18:11:31.272Z,76.10
2018-07-05T18:14:10.678Z,75.50
2018-07-05T18:16:49.574Z,76.60
2018-07-05T18:19:28.813Z,76.80
2018-07-05T18:22:08.716Z,77.50
2018-07-05T18:24:47.577Z,77.70
2018-07-05T18:27:26.558Z,77.80
2018-07-05T18:30:05.373Z,78.10
2018-07-05T18:32:44.271Z,77.50
2018-07-05T18:35:23.229Z,77.50
2018-07-05T18:38:02.167Z,78.80
2018-07-05T18:40:45.146Z,78.80
2018-07-05T18:43:25.467Z,79.10
2018-07-05T18:46:04.471Z,79.10
2018-07-05T18:48:43.529Z,79.30
2018-07-05T18:51:27.873Z,79.20
2018-07-05T18:54:09.188Z,78.80
2018-07-05T18:56:49.083Z,79.60
2018-07-05T18:59:30.107Z,79.80
2018-07-05T19:02:09.106Z,79.30
2018-07-05T19:04:47.904Z,79.50
2018-07-05T19:07:26.866Z,78.90
2018-07-05T19:10:09.375Z,79.10
2018-07-05T19:12:49.231Z,79.40
2018-07-05T19:15:29.656Z,78.90
2018-07-05T19:18:09.671Z,79.00
2018-07-05T19:20:56.214Z,79.80
2018-07-05T19:23:37.336Z,80.50
2018-07-05T19:26:19.827Z,79.60
2018-07-05T19:31:33.583Z,79.80
2018-07-05T19:34:12.415Z,80.00
2018-07-05T19:36:51.287Z,79.50
2018-07-05T19:39:30.119Z,79.60
2018-07-05T19:42:08.894Z,80.10
2018-07-05T19:44:47.785Z,80.20
2018-07-05T19:47:26.648Z,80.40
2018-07-05T19:50:05.430Z,80.70
2018-07-05T19:52:44.360Z,81.00
2018-07-05T19:55:23.242Z,80.60
2018-07-05T19:58:02.119Z,80.90
2018-07-05T20:00:41.020Z,79.70
2018-07-05T20:03:19.871Z,79.90
2018-07-05T20:05:58.631Z,79.10
2018-07-05T20:08:37.604Z,79.60
2018-07-05T20:11:16.497Z,79.20
2018-07-05T20:13:55.472Z,78.80
2018-07-05T20:16:34.298Z,78.40
2018-07-05T20:19:13.177Z,78.30
2018-07-05T20:21:52.120Z,78.20
2018-07-05T20:24:31.003Z,78.40
2018-07-05T20:27:15.889Z,78.70
2018-07-05T20:29:54.957Z,79.10
2018-07-05T20:32:33.908Z,78.70
2018-07-05T20:35:13.071Z,78.20
2018-07-05T20:37:52.254Z,79.20
2018-07-05T20:43:04.441Z,80.00
2018-07-05T20:45:43.346Z,79.90
2018-07-05T20:48:22.210Z,78.80
2018-07-05T20:51:02.322Z,78.90
2018-07-05T20:53:41.510Z,80.10
2018-07-05T20:56:20.451Z,79.60
2018-07-05T20:58:59.462Z,80.30
2018-07-05T21:01:38.440Z,79.50
2018-07-05T21:04:17.441Z,80.00
2018-07-05T21:06:56.635Z,79.90
2018-07-05T21:09:35.671Z,80.00
2018-07-05T21:12:14.789Z,80.40
2018-07-05T21:14:53.821Z,80.50
2018-07-05T21:17:33.117Z,80.40
2018-07-05T21:20:12.250Z,80.70
2018-07-05T21:22:51.461Z,80.20
2018-07-05T21:25:30.563Z,80.90
2018-07-05T21:30:44.371Z,80.40
2018-07-05T21:33:23.885Z,80.50
2018-07-05T21:36:02.994Z,80.70
2018-07-05T21:38:42.102Z,80.80
2018-07-05T21:41:21.272Z,80.90
2018-07-05T21:44:00.251Z,80.90
2018-07-05T21:46:39.880Z,81.20
2018-07-05T21:49:18.895Z,81.50
2018-07-05T21:51:57.974Z,81.80
2018-07-05T21:54:37.352Z,81.90
2018-07-05T21:57:17.111Z,81.40
2018-07-05T21:59:59.653Z,81.00
2018-07-05T22:02:40.092Z,81.20
2018-07-05T22:05:27.190Z,81.20
2018-07-05T22:08:08.676Z,81.70
2018-07-05T22:10:47.851Z,81.70
2018-07-05T22:13:28.238Z,82.10
2018-07-05T22:16:10.176Z,82.10
2018-07-05T22:18:55.022Z,82.00
2018-07-05T22:21:39.012Z,81.50
2018-07-05T22:24:23.755Z,81.40
2018-07-05T22:27:02.841Z,81.60
2018-07-05T22:29:47.578Z,81.40
2018-07-05T22:32:28.848Z,81.00
2018-07-05T22:35:08.389Z,81.10
2018-07-05T22:37:47.591Z,81.40
2018-07-05T22:40:29.477Z,81.60
2018-07-05T22:43:11.044Z,81.80
2018-07-05T22:45:55.318Z,82.00
2018-07-05T22:48:36.308Z,82.20
2018-07-05T22:51:15.506Z,81.90
2018-07-05T22:53:57.300Z,81.80
2018-07-05T22:56:37.933Z,81.80
2018-07-05T23:01:57.936Z,81.80
2018-07-05T23:04:38.564Z,81.80
2018-07-05T23:07:18.116Z,81.50
2018-07-05T23:09:58.401Z,81.30
2018-07-05T23:12:40.864Z,81.00
2018-07-05T23:15:22.289Z,81.10
2018-07-05T23:18:02.905Z,81.10
2018-07-05T23:20:43.711Z,81.40
2018-07-05T23:23:22.824Z,81.40
2018-07-05T23:26:02.044Z,81.00
2018-07-05T23:28:45.347Z,81.30
2018-07-05T23:31:24.750Z,81.30
2018-07-05T23:34:06.593Z,81.60
2018-07-05T23:36:47.959Z,82.00
2018-07-05T23:39:27.245Z,81.40
2018-07-05T23:42:06.596Z,81.30
2018-07-05T23:44:46.247Z,81.50
2018-07-05T23:47:25.516Z,81.90
2018-07-05T23:50:05.736Z,81.40
2018-07-05T23:52:45.728Z,81.90
2018-07-05T23:55:24.814Z,81.50
2018-07-05T23:58:04.074Z,81.30
